»·PEaware :: N797ST KSNA-KSBA

N797ST :: KSNA-KSBA

FLIGHT INFORMATION

Flight Status: Arrived
Operator: Privately registered:
United States
More flights under this callsign
Pilot: Michael DeGraw (15839)
Aircraft: CESSNA 172 SKYHAWK
(C172)
More flights by this aircraft type
Origin: KSNA John Wayne-Orange Co
United States
Destination: KSBA Santa Barbara Mun
United States
More flights between these airports :: More routes between these airports
Route: SLI V23 LAX V299 VTU VTU282 KWANG
File this flight plan on PilotEdge
Remarks:
Altitude:
(Current/Filed)
6,000ft
Speed:
(Current/Filed)
104kts
Departed: 08-Aug-17 08:40 PM
Arrived: 08-Aug-17 09:49 PM
Distance/Time
Traveled:
108nm/1:09
Distance/Time
To Go:
Arrived

Flight Plot

Page will automatically refresh every two minutes.


Map Options




Map Legend


Flown Route
Filed Route
Departure Airport
Arrival Airport
Navaid (VOR, NDB)
Fix

Horizontal Profiles

Position Reports

Time Latitude Longitude Heading Altitude Ground
Speed
08-Aug-17 20:27 33.667969 -117.871468 37 59ft 0kts
08-Aug-17 20:28 33.667969 -117.871468 37 59ft 0kts
08-Aug-17 20:29 33.667969 -117.871468 37 59ft 0kts
08-Aug-17 20:30 33.667969 -117.871468 37 59ft 0kts
08-Aug-17 20:31 33.667969 -117.871468 37 59ft 0kts
08-Aug-17 20:32 33.667969 -117.871468 37 59ft 0kts
08-Aug-17 20:33 33.667969 -117.871468 37 59ft 0kts
08-Aug-17 20:34 33.667969 -117.871468 37 59ft 0kts
08-Aug-17 20:35 33.667969 -117.871468 37 59ft 0kts
08-Aug-17 20:36 33.667969 -117.871468 37 59ft 0kts
08-Aug-17 20:37 33.667969 -117.871468 37 59ft 0kts
08-Aug-17 20:38 33.668054 -117.871390 37 59ft 8kts
08-Aug-17 20:39 33.671290 -117.869232 41 59ft 9kts
08-Aug-17 20:40 33.674121 -117.866989 25 59ft 15kts
08-Aug-17 20:41 33.678565 -117.864367 26 59ft 19kts
08-Aug-17 20:42 33.679808 -117.864244 249 59ft 3kts
08-Aug-17 20:43 33.667687 -117.872041 227 438ft 63kts
08-Aug-17 20:44 33.676569 -117.891847 326 851ft 94kts
08-Aug-17 20:45 33.700732 -117.913988 311 799ft 115kts
08-Aug-17 20:46 33.720032 -117.944903 305 801ft 114kts
08-Aug-17 20:47 33.737063 -117.972138 298 1295ft 90kts
08-Aug-17 20:48 33.751547 -117.999519 305 1377ft 119kts
08-Aug-17 20:49 33.771795 -118.032655 306 1087ft 118kts
08-Aug-17 20:50 33.791204 -118.063758 306 1100ft 116kts
08-Aug-17 20:51 33.809856 -118.093651 293 1417ft 95kts
08-Aug-17 20:52 33.807837 -118.123301 264 2056ft 87kts
08-Aug-17 20:53 33.808530 -118.152215 283 2618ft 87kts
08-Aug-17 20:54 33.815275 -118.180133 286 3146ft 86kts
08-Aug-17 20:55 33.822320 -118.207861 286 3654ft 86kts
08-Aug-17 20:56 33.829356 -118.235551 286 4140ft 86kts
08-Aug-17 20:57 33.836380 -118.263222 286 4596ft 86kts
08-Aug-17 20:58 33.843323 -118.290640 285 5018ft 85kts
08-Aug-17 20:59 33.850116 -118.317976 286 5409ft 85kts
08-Aug-17 21:00 33.857024 -118.345306 286 5779ft 85kts
08-Aug-17 21:01 33.871895 -118.366793 316 6099ft 88kts
08-Aug-17 21:02 33.892879 -118.389022 318 6058ft 106kts
08-Aug-17 21:03 33.914897 -118.412480 318 6046ft 101kts
08-Aug-17 21:04 33.934169 -118.434733 293 6052ft 93kts
08-Aug-17 21:05 33.943426 -118.464055 290 6055ft 93kts
08-Aug-17 21:06 33.952774 -118.493291 290 6055ft 93kts
08-Aug-17 21:07 33.962119 -118.522520 290 6056ft 94kts
08-Aug-17 21:08 33.971679 -118.552438 290 6056ft 96kts
08-Aug-17 21:09 33.981306 -118.582595 290 6047ft 97kts
08-Aug-17 21:10 33.990949 -118.612844 290 6045ft 96kts
08-Aug-17 21:11 34.000601 -118.643150 290 6046ft 96kts
08-Aug-17 21:12 34.010183 -118.673321 290 6046ft 96kts
08-Aug-17 21:13 34.019867 -118.703735 290 6045ft 95kts
08-Aug-17 21:14 34.029418 -118.733813 290 6046ft 96kts
08-Aug-17 21:15 34.038995 -118.764000 290 6046ft 96kts
08-Aug-17 21:16 34.047163 -118.794919 287 6046ft 96kts
08-Aug-17 21:17 34.055413 -118.825709 287 6046ft 96kts
08-Aug-17 21:18 34.063650 -118.856429 287 6039ft 94kts
08-Aug-17 21:19 34.071797 -118.886851 287 6047ft 96kts
08-Aug-17 21:20 34.080036 -118.917634 287 6046ft 96kts
08-Aug-17 21:21 34.088292 -118.948523 287 6046ft 96kts
08-Aug-17 21:22 34.096542 -118.979424 287 6046ft 96kts
08-Aug-17 21:23 34.104789 -119.010290 287 6046ft 96kts
08-Aug-17 21:24 34.113040 -119.041320 287 6046ft 96kts
08-Aug-17 21:25 34.124051 -119.070852 296 6046ft 96kts
08-Aug-17 21:26 34.136244 -119.099780 296 6046ft 97kts
08-Aug-17 21:27 34.148439 -119.128790 296 6046ft 96kts
08-Aug-17 21:28 34.160652 -119.157869 296 6046ft 96kts
08-Aug-17 21:29 34.172816 -119.186856 296 6046ft 96kts
08-Aug-17 21:30 34.185019 -119.215962 296 6046ft 97kts
08-Aug-17 21:31 34.197174 -119.244978 296 6046ft 97kts
08-Aug-17 21:32 34.209367 -119.274109 296 6046ft 96kts
08-Aug-17 21:33 34.221505 -119.303131 296 6046ft 97kts
08-Aug-17 21:34 34.235016 -119.335401 296 5982ft 126kts
08-Aug-17 21:35 34.248521 -119.367780 296 6040ft 98kts
08-Aug-17 21:36 34.260704 -119.397029 296 6045ft 97kts
08-Aug-17 21:37 34.272814 -119.426093 296 6046ft 97kts
08-Aug-17 21:38 34.284972 -119.455295 296 6046ft 97kts
08-Aug-17 21:39 34.296925 -119.483992 296 6024ft 101kts
08-Aug-17 21:40 34.313943 -119.518515 300 5129ft 131kts
08-Aug-17 21:41 34.325456 -119.555000 282 4953ft 105kts
08-Aug-17 21:42 34.339972 -119.587935 297 4569ft 113kts
08-Aug-17 21:43 34.351468 -119.622008 290 4414ft 106kts
08-Aug-17 21:44 34.366401 -119.652546 303 4210ft 106kts
08-Aug-17 21:45 34.389106 -119.682784 321 3008ft 120kts
08-Aug-17 21:46 34.409543 -119.705381 318 2500ft 88kts
08-Aug-17 21:47 34.422290 -119.728829 290 2215ft 82kts
08-Aug-17 21:48 34.426991 -119.754222 274 1739ft 71kts
08-Aug-17 21:49 34.428390 -119.778109 272 1258ft 70kts
08-Aug-17 21:50 34.428344 -119.801278 267 766ft 65kts
08-Aug-17 21:51 34.428022 -119.822524 268 260ft 59kts
08-Aug-17 21:52 34.427867 -119.838910 279 13ft 19kts

Navigation Log

Ident Type
1. KSNA Airport
2. SLI Navaid
3. POPPR Fix
4. HERMO Fix
5. LAX Navaid
6. SADDE Fix
7. VTU Navaid
8. KWANG Fix
9. KSBA Airport